createdAt,value
2022-10-24T00:01:43.257Z,97666.28
2022-10-24T00:04:11.699Z,97656.44
2022-10-24T00:06:41.463Z,97670.63
2022-10-24T00:09:10.341Z,97663.25
2022-10-24T00:11:39.329Z,97671.28
2022-10-24T00:14:07.758Z,97672.94
2022-10-24T00:16:37.380Z,97682.63
2022-10-24T00:19:05.685Z,97690.47
2022-10-24T00:21:33.957Z,97687.81
2022-10-24T00:24:02.270Z,97693.97
2022-10-24T00:26:31.163Z,97689.28
2022-10-24T00:29:02.398Z,97684.13
2022-10-24T00:31:31.047Z,97691.78
2022-10-24T00:34:01.362Z,97675.72
2022-10-24T00:36:30.271Z,97683.56
2022-10-24T00:38:58.466Z,97676.56
2022-10-24T00:41:29.711Z,97688.09
2022-10-24T00:44:23.037Z,97690.94
2022-10-24T00:46:56.578Z,97677.56
2022-10-24T00:49:30.972Z,97684.59
2022-10-24T00:52:05.086Z,97661.53
2022-10-24T00:54:33.465Z,97655.19
2022-10-24T00:57:10.141Z,97664.22
2022-10-24T00:59:42.120Z,97666.06
2022-10-24T01:02:11.234Z,97681.09
2022-10-24T01:04:40.944Z,97684.59
2022-10-24T01:07:30.457Z,97682.91
2022-10-24T01:10:26.320Z,97681.25
2022-10-24T01:13:07.893Z,97680.41
2022-10-24T01:15:44.371Z,97711.50
2022-10-24T01:18:19.212Z,97728.34
2022-10-24T01:21:10.045Z,97735.56
2022-10-24T01:23:56.865Z,97732.22
2022-10-24T01:26:57.135Z,97739.41
2022-10-24T01:29:58.383Z,97738.59
2022-10-24T01:32:47.479Z,97734.03
2022-10-24T01:38:11.875Z,97722.56
2022-10-24T01:40:50.857Z,97716.19
2022-10-24T01:43:26.136Z,97703.00
2022-10-24T01:46:02.993Z,97691.47
2022-10-24T01:48:35.605Z,97673.78
2022-10-24T01:51:06.842Z,97663.09
2022-10-24T01:53:37.429Z,97654.06
2022-10-24T01:56:06.831Z,97651.03
2022-10-24T01:58:35.188Z,97661.34
2022-10-24T02:01:09.855Z,97657.69
2022-10-24T02:03:41.393Z,97635.94
2022-10-24T02:06:17.761Z,97639.44
2022-10-24T02:08:52.603Z,97627.56
2022-10-24T02:11:20.937Z,97620.00
2022-10-24T02:13:56.741Z,97617.16
2022-10-24T02:16:26.676Z,97604.25
2022-10-24T02:18:57.695Z,97611.06
2022-10-24T02:21:33.365Z,97630.81
2022-10-24T02:24:08.383Z,97638.16
2022-10-24T02:26:47.382Z,97618.34
2022-10-24T02:29:20.532Z,97600.56
2022-10-24T02:31:55.863Z,97580.19
2022-10-24T02:34:26.966Z,97576.78
2022-10-24T02:36:58.649Z,97589.13
2022-10-24T02:39:28.832Z,97582.78
2022-10-24T02:41:58.866Z,97577.06
2022-10-24T02:44:29.419Z,97575.53
2022-10-24T02:47:02.515Z,97562.97
2022-10-24T02:49:30.798Z,97574.13
2022-10-24T02:51:59.355Z,97571.75
2022-10-24T02:54:27.784Z,97560.88
2022-10-24T02:57:00.826Z,97582.06
2022-10-24T02:59:29.526Z,97587.25
2022-10-24T03:01:59.315Z,97572.66
2022-10-24T03:04:27.527Z,97552.53
2022-10-24T03:06:55.766Z,97532.59
2022-10-24T03:09:23.983Z,97532.41
2022-10-24T03:11:52.519Z,97525.06
2022-10-24T03:14:20.741Z,97514.16
2022-10-24T03:16:48.921Z,97516.66
2022-10-24T03:19:18.580Z,97529.84
2022-10-24T03:21:46.828Z,97518.97
2022-10-24T03:24:19.515Z,97516.09
2022-10-24T03:26:55.224Z,97525.78
2022-10-24T03:29:23.515Z,97512.41
2022-10-24T03:31:51.716Z,97505.91
2022-10-24T03:34:21.379Z,97509.56
2022-10-24T03:36:49.715Z,97517.22
2022-10-24T03:39:18.042Z,97521.75
2022-10-24T03:41:46.324Z,97525.25
2022-10-24T03:44:14.588Z,97522.56
2022-10-24T03:46:42.859Z,97527.72
2022-10-24T03:49:11.259Z,97541.94
2022-10-24T03:51:40.966Z,97551.00
2022-10-24T03:54:09.578Z,97541.94
2022-10-24T03:56:38.081Z,97537.44
2022-10-24T03:59:06.279Z,97529.41
2022-10-24T04:01:34.567Z,97555.34
2022-10-24T04:04:02.860Z,97568.53
2022-10-24T04:06:34.004Z,97552.66
2022-10-24T04:09:06.165Z,97565.19
2022-10-24T04:11:34.471Z,97568.91
2022-10-24T04:16:35.971Z,97572.78
2022-10-24T04:19:04.939Z,97584.09
2022-10-24T04:21:33.421Z,97580.63
2022-10-24T04:24:01.721Z,97570.72
2022-10-24T04:26:31.399Z,97566.59
2022-10-24T04:28:59.661Z,97582.47
2022-10-24T04:31:27.952Z,97585.97
2022-10-24T04:33:56.259Z,97565.75
2022-10-24T04:36:24.549Z,97567.63
2022-10-24T04:38:52.862Z,97570.44
2022-10-24T04:41:21.109Z,97568.75
2022-10-24T04:43:50.724Z,97573.31
2022-10-24T04:46:18.950Z,97567.97
2022-10-24T04:48:47.259Z,97557.25
2022-10-24T04:51:18.596Z,97559.94
2022-10-24T04:53:50.100Z,97575.78
2022-10-24T04:56:18.758Z,97562.59
2022-10-24T04:58:47.046Z,97563.41
2022-10-24T05:01:16.797Z,97561.75
2022-10-24T05:03:45.145Z,97566.94
2022-10-24T05:06:13.519Z,97567.97
2022-10-24T05:08:41.778Z,97575.78
2022-10-24T05:11:11.492Z,97584.00
2022-10-24T05:13:41.254Z,97586.69
2022-10-24T05:16:09.718Z,97595.53
2022-10-24T05:18:39.343Z,97599.22
2022-10-24T05:21:07.839Z,97584.81
2022-10-24T05:23:36.125Z,97602.06
2022-10-24T05:26:04.701Z,97576.16
2022-10-24T05:28:32.956Z,97586.22
2022-10-24T05:31:01.358Z,97597.09
2022-10-24T05:33:29.636Z,97600.63
2022-10-24T05:35:59.268Z,97615.81
2022-10-24T05:38:27.731Z,97613.81
2022-10-24T05:40:55.945Z,97624.50
2022-10-24T05:43:24.181Z,97619.97
2022-10-24T05:45:52.425Z,97612.97
2022-10-24T05:48:20.740Z,97607.63
2022-10-24T05:50:49.006Z,97619.34
2022-10-24T05:53:18.662Z,97608.63
2022-10-24T05:55:46.888Z,97622.00
2022-10-24T05:58:20.915Z,97626.34
2022-10-24T06:00:53.569Z,97621.19
2022-10-24T06:03:22.671Z,97630.66
2022-10-24T06:05:50.961Z,97631.50
2022-10-24T06:08:20.777Z,97636.03
2022-10-24T06:10:49.787Z,97631.50
2022-10-24T06:13:19.165Z,97637.69
2022-10-24T06:15:47.461Z,97641.19
2022-10-24T06:18:15.737Z,97649.22
2022-10-24T06:20:44.069Z,97653.38
2022-10-24T06:23:12.392Z,97659.56
2022-10-24T06:25:43.315Z,97658.75
2022-10-24T06:28:12.388Z,97650.56
2022-10-24T06:30:42.445Z,97653.25
2022-10-24T06:33:11.152Z,97654.88
2022-10-24T06:35:39.433Z,97656.53
2022-10-24T06:38:07.699Z,97664.56
2022-10-24T06:40:39.861Z,97670.75
2022-10-24T06:43:09.903Z,97671.59
2022-10-24T06:45:40.239Z,97673.25
2022-10-24T06:48:08.545Z,97680.25
2022-10-24T06:50:39.701Z,97673.91
2022-10-24T06:53:08.227Z,97669.38
2022-10-24T06:55:39.962Z,97663.03
2022-10-24T06:58:09.599Z,97650.44
2022-10-24T07:00:39.475Z,97649.47
2022-10-24T07:03:07.737Z,97651.09
2022-10-24T07:05:35.952Z,97647.41
2022-10-24T07:08:04.673Z,97649.09
2022-10-24T07:10:33.184Z,97653.41
2022-10-24T07:13:01.492Z,97656.09
2022-10-24T07:15:31.152Z,97660.44
2022-10-24T07:17:59.512Z,97654.06
2022-10-24T07:20:27.835Z,97656.38
2022-10-24T07:22:56.112Z,97661.38
2022-10-24T07:25:24.378Z,97666.72
2022-10-24T07:27:54.735Z,97661.38
2022-10-24T07:30:23.369Z,97658.69
2022-10-24T07:32:52.977Z,97656.00
2022-10-24T07:35:21.420Z,97645.13
2022-10-24T07:37:49.695Z,97644.28
2022-10-24T07:40:18.126Z,97638.09
2022-10-24T07:42:46.561Z,97635.03
2022-10-24T07:45:14.824Z,97630.53
2022-10-24T07:47:43.577Z,97625.19
2022-10-24T07:50:13.426Z,97615.94
2022-10-24T07:52:41.658Z,97621.09
2022-10-24T07:55:10.897Z,97615.75
2022-10-24T07:57:39.200Z,97621.75
2022-10-24T08:00:09.412Z,97620.72
2022-10-24T08:02:37.710Z,97630.22
2022-10-24T08:05:07.182Z,97632.91
2022-10-24T08:07:38.828Z,97620.34
2022-10-24T08:10:10.409Z,97626.38
2022-10-24T08:12:38.793Z,97641.41
2022-10-24T08:15:08.125Z,97634.22
2022-10-24T08:17:37.434Z,97623.13
2022-10-24T08:20:07.552Z,97622.47
2022-10-24T08:22:37.431Z,97613.16
2022-10-24T08:25:09.677Z,97619.50
2022-10-24T08:27:38.157Z,97603.91
2022-10-24T08:30:08.179Z,97595.88
2022-10-24T08:32:38.238Z,97588.50
2022-10-24T08:35:07.653Z,97596.34
2022-10-24T08:37:39.570Z,97593.50
2022-10-24T08:40:13.018Z,97591.44
2022-10-24T08:42:41.328Z,97588.56
2022-10-24T08:45:16.507Z,97595.59
2022-10-24T08:47:52.879Z,97599.75
2022-10-24T08:50:27.025Z,97595.03
2022-10-24T08:53:03.910Z,97596.50
2022-10-24T08:55:55.692Z,97601.66
2022-10-24T08:58:29.149Z,97623.75
2022-10-24T09:01:01.893Z,97632.41
2022-10-24T09:03:55.194Z,97633.72
2022-10-24T09:06:28.801Z,97611.06
2022-10-24T09:09:01.218Z,97605.34
2022-10-24T09:11:41.930Z,97598.38
2022-10-24T09:14:16.559Z,97586.06
2022-10-24T09:16:48.752Z,97572.09
2022-10-24T09:19:21.325Z,97577.75
2022-10-24T09:21:50.953Z,97596.59
2022-10-24T09:24:37.559Z,97587.53
2022-10-24T09:27:11.889Z,97591.47
2022-10-24T09:29:40.566Z,97593.38
2022-10-24T09:32:17.912Z,97596.53
2022-10-24T09:34:47.089Z,97601.94
2022-10-24T09:37:44.411Z,97599.69
2022-10-24T09:40:26.256Z,97604.66
2022-10-24T09:42:58.444Z,97614.81
2022-10-24T09:45:39.488Z,97617.97
2022-10-24T09:48:20.067Z,97632.63
2022-10-24T09:50:50.874Z,97635.56
2022-10-24T09:53:26.575Z,97647.75
2022-10-24T09:56:00.149Z,97647.38
2022-10-24T09:58:33.776Z,97645.16
2022-10-24T10:01:06.764Z,97642.25
2022-10-24T10:03:36.415Z,97631.97
2022-10-24T10:06:17.472Z,97627.25
2022-10-24T10:08:52.000Z,97634.91
2022-10-24T10:11:31.501Z,97645.25
2022-10-24T10:14:02.521Z,97646.09
2022-10-24T10:16:35.790Z,97638.84
2022-10-24T10:19:07.526Z,97646.50
2022-10-24T10:21:56.281Z,97650.72
2022-10-24T10:24:38.432Z,97658.38
2022-10-24T10:27:30.358Z,97664.53
2022-10-24T10:30:25.821Z,97665.38
2022-10-24T10:33:13.483Z,97672.19
2022-10-24T10:35:51.604Z,97675.72
2022-10-24T10:38:44.548Z,97678.41
2022-10-24T10:41:28.673Z,97675.72
2022-10-24T10:44:11.895Z,97678.22
2022-10-24T10:46:48.869Z,97687.72
2022-10-24T10:49:25.896Z,97692.25
2022-10-24T10:51:59.517Z,97689.38
2022-10-24T10:54:47.825Z,97692.06
2022-10-24T10:57:21.714Z,97677.81
2022-10-24T11:00:00.163Z,97684.84
2022-10-24T11:02:57.844Z,97681.31
2022-10-24T11:05:52.488Z,97669.97
2022-10-24T11:09:00.907Z,97664.59
2022-10-24T11:11:32.897Z,97669.13
2022-10-24T11:14:17.717Z,97662.31
2022-10-24T11:16:48.153Z,97668.50
2022-10-24T11:19:27.966Z,97674.69
2022-10-24T11:21:58.733Z,97665.00
2022-10-24T11:24:27.448Z,97672.00
2022-10-24T11:27:03.239Z,97675.72
2022-10-24T11:29:37.818Z,97668.50
2022-10-24T11:32:19.312Z,97663.31
2022-10-24T11:34:55.857Z,97673.22
2022-10-24T11:37:32.016Z,97669.91
2022-10-24T11:40:06.587Z,97660.41
2022-10-24T11:42:44.025Z,97657.72
2022-10-24T11:45:14.942Z,97666.81
2022-10-24T11:47:55.584Z,97666.16
2022-10-24T11:50:29.797Z,97659.09
2022-10-24T11:53:04.573Z,97637.00
2022-10-24T11:55:39.041Z,97632.66
2022-10-24T11:58:15.064Z,97627.50
2022-10-24T12:01:14.271Z,97624.56
2022-10-24T12:04:38.529Z,97662.03
2022-10-24T12:10:25.270Z,97663.84
2022-10-24T12:13:16.197Z,97665.06
2022-10-24T12:15:54.755Z,97674.97
2022-10-24T12:18:31.610Z,97676.00
2022-10-24T12:21:05.807Z,97668.75
2022-10-24T12:23:34.179Z,97676.00
2022-10-24T12:26:18.495Z,97682.72
2022-10-24T12:28:56.434Z,97677.75
2022-10-24T12:31:30.192Z,97686.63
2022-10-24T12:34:48.894Z,97678.78
2022-10-24T12:37:37.511Z,97686.84
2022-10-24T12:40:52.686Z,97676.28
2022-10-24T12:43:36.029Z,97671.97
2022-10-24T12:47:01.104Z,97664.13
2022-10-24T12:49:31.685Z,97657.91
2022-10-24T12:52:01.038Z,97658.28
2022-10-24T12:54:43.879Z,97656.63
2022-10-24T12:57:25.669Z,97655.56
2022-10-24T12:59:57.933Z,97654.91
2022-10-24T13:02:50.425Z,97645.78
2022-10-24T13:05:57.174Z,97645.25
2022-10-24T13:08:50.157Z,97655.78
2022-10-24T13:11:36.280Z,97652.28
2022-10-24T13:14:31.809Z,97652.28
2022-10-24T13:17:10.011Z,97650.22
2022-10-24T13:19:38.715Z,97649.25
2022-10-24T13:22:25.950Z,97648.41
2022-10-24T13:24:54.334Z,97637.03
2022-10-24T13:27:32.648Z,97637.22
2022-10-24T13:30:24.911Z,97628.75
2022-10-24T13:33:42.077Z,97624.94
2022-10-24T13:36:17.857Z,97621.66
2022-10-24T13:38:51.015Z,97600.94
2022-10-24T13:41:29.697Z,97593.72
2022-10-24T13:44:04.570Z,97594.56
2022-10-24T13:46:42.258Z,97588.13
2022-10-24T13:49:22.074Z,97561.53
2022-10-24T13:51:56.264Z,97555.13
2022-10-24T13:54:28.518Z,97547.47
2022-10-24T13:56:59.775Z,97555.97
2022-10-24T13:59:34.139Z,97562.28
2022-10-24T14:02:06.808Z,97576.31
2022-10-24T14:04:37.297Z,97571.53
2022-10-24T14:07:08.475Z,97571.09
2022-10-24T14:09:42.520Z,97566.75
2022-10-24T14:12:20.589Z,97552.06
2022-10-24T14:14:52.263Z,97526.97
2022-10-24T14:17:26.302Z,97519.31
2022-10-24T14:19:59.653Z,97516.16
2022-10-24T14:22:36.588Z,97527.56
2022-10-24T14:25:06.325Z,97528.28
2022-10-24T14:27:35.360Z,97543.06
2022-10-24T14:30:06.990Z,97552.31
2022-10-24T14:32:35.260Z,97557.38
2022-10-24T14:35:05.660Z,97559.25
2022-10-24T14:37:37.894Z,97565.16
2022-10-24T14:40:08.464Z,97561.09
2022-10-24T14:42:37.010Z,97560.44
2022-10-24T14:45:06.912Z,97545.97
2022-10-24T14:47:39.714Z,97544.69
2022-10-24T14:50:41.430Z,97538.16
2022-10-24T14:53:26.171Z,97539.94
2022-10-24T14:55:58.317Z,97554.59
2022-10-24T14:58:29.848Z,97550.69
2022-10-24T15:01:00.297Z,97561.03
2022-10-24T15:03:29.996Z,97552.63
2022-10-24T15:06:12.507Z,97557.41
2022-10-24T15:08:46.036Z,97566.75
2022-10-24T15:11:21.827Z,97580.50
2022-10-24T15:14:05.608Z,97602.75
2022-10-24T15:16:39.717Z,97615.75
2022-10-24T15:19:17.910Z,97634.13
2022-10-24T15:24:24.208Z,97629.22
2022-10-24T15:26:53.416Z,97632.53
2022-10-24T15:29:24.142Z,97616.94
2022-10-24T15:31:53.639Z,97608.53
2022-10-24T15:34:24.890Z,97613.31
2022-10-24T15:36:56.906Z,97622.38
2022-10-24T15:39:27.096Z,97627.94
2022-10-24T15:41:56.164Z,97632.44
2022-10-24T15:44:28.523Z,97640.47
2022-10-24T15:46:57.369Z,97641.31
2022-10-24T15:49:25.784Z,97647.03
2022-10-24T15:51:54.214Z,97638.16
2022-10-24T15:54:25.958Z,97638.53
2022-10-24T15:56:57.896Z,97645.72
2022-10-24T15:59:27.793Z,97650.47
2022-10-24T16:02:00.285Z,97644.44
2022-10-24T16:04:31.733Z,97646.94
2022-10-24T16:07:01.546Z,97649.81
2022-10-24T16:09:31.289Z,97643.41
2022-10-24T16:12:01.179Z,97644.25
2022-10-24T16:14:30.472Z,97640.13
2022-10-24T16:16:59.456Z,97639.84
2022-10-24T16:19:28.434Z,97644.00
2022-10-24T16:21:58.855Z,97645.38
2022-10-24T16:24:28.281Z,97647.69
2022-10-24T16:26:57.302Z,97652.41
2022-10-24T16:29:27.093Z,97663.88
2022-10-24T16:31:55.520Z,97666.53
2022-10-24T16:34:24.331Z,97664.66
2022-10-24T16:36:55.425Z,97672.69
2022-10-24T16:39:24.218Z,97674.09
2022-10-24T16:41:55.952Z,97667.09
2022-10-24T16:44:24.291Z,97671.13
2022-10-24T16:46:55.738Z,97679.53
2022-10-24T16:49:24.334Z,97674.53
2022-10-24T16:51:52.730Z,97673.72
2022-10-24T16:54:22.854Z,97676.84
2022-10-24T16:56:53.875Z,97677.03
2022-10-24T16:59:22.688Z,97676.28
2022-10-24T17:01:51.317Z,97669.09
2022-10-24T17:04:21.246Z,97674.50
2022-10-24T17:06:49.958Z,97665.94
2022-10-24T17:09:18.257Z,97672.94
2022-10-24T17:11:46.790Z,97672.31
2022-10-24T17:14:15.441Z,97657.25
2022-10-24T17:16:45.048Z,97657.78
2022-10-24T17:19:17.467Z,97655.78
2022-10-24T17:21:50.132Z,97666.47
2022-10-24T17:24:21.200Z,97663.06
2022-10-24T17:26:50.918Z,97663.31
2022-10-24T17:29:27.856Z,97670.34
2022-10-24T17:31:56.904Z,97666.94
2022-10-24T17:34:26.140Z,97677.19
2022-10-24T17:37:03.258Z,97674.50
2022-10-24T17:39:34.335Z,97677.34
2022-10-24T17:42:02.923Z,97675.53
2022-10-24T17:44:31.790Z,97678.00
2022-10-24T17:47:00.582Z,97679.00
2022-10-24T17:49:28.867Z,97676.16
2022-10-24T17:51:58.469Z,97670.63
2022-10-24T17:54:26.708Z,97685.03
2022-10-24T17:56:54.960Z,97681.31
2022-10-24T17:59:23.142Z,97675.78
2022-10-24T18:01:51.525Z,97675.78
2022-10-24T18:04:19.978Z,97686.66
2022-10-24T18:06:48.225Z,97685.84
2022-10-24T18:09:17.803Z,97685.03
2022-10-24T18:11:46.002Z,97678.81
2022-10-24T18:14:14.364Z,97687.88
2022-10-24T18:16:43.165Z,97688.25
2022-10-24T18:19:11.440Z,97686.41
2022-10-24T18:21:39.699Z,97681.88
2022-10-24T18:24:09.390Z,97682.41
2022-10-24T18:26:39.016Z,97670.06
2022-10-24T18:29:07.238Z,97668.28
2022-10-24T18:31:36.031Z,97672.28
2022-10-24T18:34:07.533Z,97672.47
2022-10-24T18:36:37.511Z,97681.31
2022-10-24T18:39:06.460Z,97675.31
2022-10-24T18:41:49.353Z,97674.47
2022-10-24T18:44:27.703Z,97662.50
2022-10-24T18:46:59.682Z,97672.34
2022-10-24T18:49:28.862Z,97665.53
2022-10-24T18:52:08.406Z,97664.88
2022-10-24T18:54:39.427Z,97665.91
2022-10-24T18:57:23.541Z,97657.75
2022-10-24T18:59:52.468Z,97652.78
2022-10-24T19:02:34.496Z,97656.81
2022-10-24T19:05:16.505Z,97658.00
2022-10-24T19:07:46.585Z,97657.81
2022-10-24T19:10:22.316Z,97663.34
2022-10-24T19:12:53.051Z,97663.34
2022-10-24T19:15:22.708Z,97660.84
2022-10-24T19:17:52.675Z,97667.03
2022-10-24T19:20:23.434Z,97668.88
2022-10-24T19:22:52.202Z,97665.38
2022-10-24T19:25:21.115Z,97666.56
2022-10-24T19:27:49.912Z,97660.59
2022-10-24T19:30:19.613Z,97669.78
2022-10-24T19:32:48.066Z,97676.31
2022-10-24T19:35:17.345Z,97680.19
2022-10-24T19:37:46.108Z,97670.88
2022-10-24T19:40:15.203Z,97657.69
2022-10-24T19:42:43.485Z,97654.53
2022-10-24T19:45:11.908Z,97661.25
2022-10-24T19:47:41.538Z,97655.44
2022-10-24T19:50:12.593Z,97671.63
2022-10-24T19:52:41.281Z,97670.78
2022-10-24T19:55:09.730Z,97674.66
2022-10-24T19:57:37.949Z,97669.69
2022-10-24T20:00:07.540Z,97662.69
2022-10-24T20:02:35.745Z,97654.00
2022-10-24T20:05:06.138Z,97659.66
2022-10-24T20:07:34.438Z,97657.00
2022-10-24T20:10:02.724Z,97659.84
2022-10-24T20:12:30.938Z,97658.19
2022-10-24T20:14:59.155Z,97661.22
2022-10-24T20:17:27.354Z,97671.06
2022-10-24T20:19:55.698Z,97669.59
2022-10-24T20:22:25.376Z,97671.59
2022-10-24T20:24:53.645Z,97674.63
2022-10-24T20:27:24.496Z,97673.13
2022-10-24T20:29:53.096Z,97677.00
2022-10-24T20:32:21.354Z,97673.84
2022-10-24T20:34:49.602Z,97675.03
2022-10-24T20:37:17.897Z,97673.53
2022-10-24T20:39:47.485Z,97668.53
2022-10-24T20:42:16.905Z,97672.41
2022-10-24T20:44:45.078Z,97678.94
2022-10-24T20:47:13.281Z,97677.41
2022-10-24T20:49:41.533Z,97677.78
2022-10-24T20:52:09.782Z,97665.63
2022-10-24T20:54:38.005Z,97679.31
2022-10-24T20:57:07.663Z,97678.00
2022-10-24T20:59:35.910Z,97689.84
2022-10-24T21:02:04.345Z,97693.69
2022-10-24T21:04:32.697Z,97686.03
2022-10-24T21:07:00.983Z,97689.72
2022-10-24T21:09:29.236Z,97681.22
2022-10-24T21:11:57.482Z,97684.91
2022-10-24T21:14:27.304Z,97686.09
2022-10-24T21:16:55.539Z,97686.25
2022-10-24T21:19:23.879Z,97692.59
2022-10-24T21:21:52.303Z,97693.59
2022-10-24T21:24:31.522Z,97701.94
2022-10-24T21:26:59.743Z,97702.97
2022-10-24T21:29:34.140Z,97710.97
2022-10-24T21:32:03.039Z,97718.13
2022-10-24T21:34:34.281Z,97704.97
2022-10-24T21:37:04.134Z,97712.13
2022-10-24T21:39:32.868Z,97714.16
2022-10-24T21:42:01.085Z,97710.97
2022-10-24T21:44:30.661Z,97711.31
2022-10-24T21:46:58.893Z,97716.84
2022-10-24T21:49:27.221Z,97720.50
2022-10-24T21:51:55.461Z,97706.66
2022-10-24T21:54:25.713Z,97712.31
2022-10-24T21:56:53.949Z,97724.16
2022-10-24T21:59:23.133Z,97727.00
2022-10-24T22:01:53.569Z,97723.84
2022-10-24T22:04:21.953Z,97722.19
2022-10-24T22:06:50.382Z,97722.19
2022-10-24T22:09:21.871Z,97727.69
2022-10-24T22:11:50.126Z,97719.69
2022-10-24T22:14:19.016Z,97720.03
2022-10-24T22:16:47.426Z,97723.50
2022-10-24T22:19:17.673Z,97722.84
2022-10-24T22:21:48.340Z,97718.69
2022-10-24T22:24:19.168Z,97716.22
2022-10-24T22:26:48.554Z,97718.19
2022-10-24T22:29:21.565Z,97731.03
2022-10-24T22:31:51.134Z,97728.53
2022-10-24T22:34:23.560Z,97727.22
2022-10-24T22:37:06.897Z,97733.03
2022-10-24T22:39:36.031Z,97728.88
2022-10-24T22:42:06.929Z,97717.72
2022-10-24T22:44:36.326Z,97718.06
2022-10-24T22:47:37.779Z,97717.06
2022-10-24T22:50:23.018Z,97729.91
2022-10-24T22:52:52.096Z,97733.38
2022-10-24T22:55:29.633Z,97729.22
2022-10-24T22:57:58.608Z,97734.56
2022-10-24T23:00:27.679Z,97744.38
2022-10-24T23:03:05.262Z,97730.41
2022-10-24T23:05:44.606Z,97734.22
2022-10-24T23:08:27.142Z,97743.22
2022-10-24T23:10:56.214Z,97736.22
2022-10-24T23:13:25.233Z,97744.22
2022-10-24T23:15:58.187Z,97752.38
2022-10-24T23:18:27.106Z,97750.84
2022-10-24T23:21:06.255Z,97759.19
2022-10-24T23:23:34.805Z,97770.00
2022-10-24T23:26:13.761Z,97773.84
2022-10-24T23:28:50.730Z,97781.16
2022-10-24T23:31:19.702Z,97782.16
2022-10-24T23:33:48.821Z,97781.47
2022-10-24T23:36:26.424Z,97788.81
2022-10-24T23:38:57.083Z,97789.78
2022-10-24T23:41:26.058Z,97790.97
2022-10-24T23:43:55.138Z,97792.78
2022-10-24T23:46:28.109Z,97797.63
2022-10-24T23:49:13.936Z,97800.44
2022-10-24T23:51:49.537Z,97796.22
2022-10-24T23:54:26.336Z,97797.41
2022-10-24T23:56:55.422Z,97803.72
2022-10-24T23:59:23.637Z,97797.56
